createdAt,value
2019-04-25T09:28:57.225Z,27.2
2019-04-25T09:29:58.539Z,27.6
2019-04-25T09:30:59.844Z,27.5
2019-04-25T09:32:01.162Z,27.5
2019-04-25T09:33:03.038Z,27.5
2019-04-25T09:34:06.056Z,27.4
2019-04-25T09:35:07.837Z,27.5
2019-04-25T09:36:09.151Z,27.4
2019-04-25T09:37:10.742Z,27.4
2019-04-25T09:38:13.265Z,27.4
2019-04-25T09:39:14.747Z,27.4
2019-04-25T09:40:19.307Z,27.5
2019-04-25T09:41:20.686Z,27.5
2019-04-25T09:42:23.718Z,27.5
2019-04-25T09:43:25.204Z,27.5
2019-04-25T09:44:26.856Z,27.5
2019-04-25T09:45:28.373Z,27.5
2019-04-25T09:46:29.685Z,27.7
2019-04-25T09:47:30.981Z,27.7
2019-04-25T09:48:32.263Z,27.7
2019-04-25T09:49:36.863Z,27.7
2019-04-25T09:50:39.833Z,27.6
2019-04-25T09:51:42.403Z,27.5
2019-04-25T09:52:47.025Z,27.5
2019-04-25T09:53:51.248Z,27.5
2019-04-25T09:54:54.838Z,27.6
2019-04-25T09:55:58.388Z,27.6
2019-04-25T09:57:04.635Z,27.6
2019-04-25T09:58:06.349Z,27.6
2019-04-25T09:59:08.370Z,27.6
2019-04-25T10:00:14.251Z,27.6
2019-04-25T10:01:16.869Z,27.6
2019-04-25T10:02:18.274Z,27.5
2019-04-25T10:03:19.577Z,27.5
2019-04-25T10:04:22.940Z,27.5
2019-04-25T10:05:25.612Z,27.5
2019-04-25T10:06:26.903Z,27.4
2019-04-25T10:07:28.206Z,27.5
2019-04-25T10:08:29.490Z,27.5
2019-04-25T10:09:31.578Z,27.5
2019-04-25T10:10:37.993Z,27.5
2019-04-25T10:11:41.761Z,27.5
2019-04-25T10:12:46.116Z,27.5
2019-04-25T10:13:48.143Z,27.5
2019-04-25T10:14:52.278Z,27.5
2019-04-25T10:15:57.518Z,27.5
2019-04-25T10:16:59.126Z,27.6
2019-04-25T10:18:00.442Z,27.5
2019-04-25T10:19:03.328Z,27.5
2019-04-25T10:20:06.004Z,27.6
2019-04-25T10:21:07.892Z,27.5
2019-04-25T10:22:10.380Z,27.6
2019-04-25T10:23:15.639Z,27.6
2019-04-25T10:24:17.071Z,27.6
2019-04-25T10:25:18.379Z,27.6
2019-04-25T10:26:20.070Z,27.5
2019-04-25T10:27:21.432Z,27.5
2019-04-25T10:28:23.746Z,27.5
2019-04-25T10:29:39.289Z,27.5
2019-04-25T10:30:49.967Z,27.5
2019-04-25T10:31:51.328Z,27.5
2019-04-25T10:32:54.377Z,27.6
2019-04-25T10:33:56.392Z,27.7
2019-04-25T10:34:57.807Z,27.6
2019-04-25T10:36:04.043Z,27.6
2019-04-25T10:37:10.045Z,27.6
2019-04-25T10:38:11.531Z,27.6
2019-04-25T10:39:14.927Z,27.7
2019-04-25T10:40:16.307Z,27.7
2019-04-25T10:41:17.919Z,27.7
2019-04-25T10:42:19.264Z,27.7
2019-04-25T10:43:21.712Z,27.6
2019-04-25T10:44:24.744Z,27.5
2019-04-25T10:45:26.525Z,27.6
2019-04-25T10:46:27.820Z,27.7
2019-04-25T10:47:31.666Z,27.6
2019-04-25T10:48:34.870Z,27.5
2019-04-25T10:49:36.149Z,27.4
2019-04-25T10:50:37.486Z,27.4
2019-04-25T10:51:38.816Z,27.4
2019-04-25T10:52:41.544Z,27.4
2019-04-25T10:53:45.123Z,27.4
2019-04-25T10:54:47.936Z,27.3
2019-04-25T10:55:51.519Z,27.3
2019-04-25T10:56:53.376Z,27.3
2019-04-25T10:57:59.480Z,27.3
2019-04-25T10:59:00.786Z,27.3
2019-04-25T11:00:07.333Z,27.3
2019-04-25T11:01:11.515Z,27.3
2019-04-25T11:02:15.840Z,27.3
2019-04-25T11:03:17.776Z,27.3
2019-04-25T11:04:21.502Z,27.2
2019-04-25T11:05:23.910Z,27.2
2019-04-25T11:06:25.302Z,27.2
2019-04-25T11:07:26.588Z,27.2
2019-04-25T11:08:28.258Z,27.2
2019-04-25T11:09:29.577Z,27.2
2019-04-25T11:10:34.707Z,27.2
2019-04-25T11:11:38.152Z,27.3
2019-04-25T11:12:39.975Z,27.2
2019-04-25T11:13:44.248Z,27.1
2019-04-25T11:14:47.283Z,27.1
2019-04-25T11:15:49.748Z,27.1
2019-04-25T11:16:51.442Z,27
2019-04-25T11:17:55.820Z,27.1
2019-04-25T11:18:57.269Z,27
2019-04-25T11:20:00.376Z,27
2019-04-25T11:21:03.905Z,27
2019-04-25T11:22:06.962Z,27
2019-04-25T11:23:08.276Z,27
2019-04-25T11:24:17.646Z,27
2019-04-25T11:25:18.936Z,27
2019-04-25T11:26:20.418Z,27
2019-04-25T11:27:21.803Z,27
2019-04-25T11:28:24.980Z,27
2019-04-25T11:29:26.288Z,27
2019-04-25T11:30:29.371Z,27
2019-04-25T11:31:30.665Z,27
2019-04-25T11:32:33.720Z,26.9
2019-04-25T11:33:35.249Z,27
2019-04-25T11:34:37.588Z,27
2019-04-25T11:35:39.354Z,26.9
2019-04-25T11:36:40.665Z,26.9
2019-04-25T11:37:43.156Z,26.9
2019-04-25T11:38:45.288Z,26.9
2019-04-25T11:39:47.278Z,26.9
2019-04-25T11:40:50.122Z,26.9
2019-04-25T11:41:52.252Z,26.9
2019-04-25T11:42:56.251Z,26.9
2019-04-25T11:43:59.162Z,26.9
2019-04-25T11:45:04.761Z,26.9
2019-04-25T11:46:06.768Z,26.9
2019-04-25T11:47:09.084Z,26.9
2019-04-25T11:48:10.432Z,26.9
2019-04-25T11:49:13.041Z,26.9
2019-04-25T11:50:16.011Z,26.9
2019-04-25T11:51:17.319Z,26.9
2019-04-25T11:52:27.177Z,27
2019-04-25T11:53:31.256Z,26.9
2019-04-25T11:54:35.670Z,26.9
2019-04-25T11:55:37.106Z,26.9
2019-04-25T11:56:38.400Z,26.9
2019-04-25T11:57:39.714Z,26.9
2019-04-25T11:58:46.340Z,26.9
2019-04-25T11:59:50.537Z,26.8
2019-04-25T12:00:53.771Z,26.8
2019-04-25T12:01:58.782Z,26.8
2019-04-25T12:03:00.087Z,26.8
2019-04-25T12:04:01.368Z,26.8
2019-04-25T12:05:04.877Z,26.7
2019-04-25T12:06:09.919Z,26.7
2019-04-25T12:07:14.221Z,26.6
2019-04-25T12:08:16.741Z,26.7
2019-04-25T12:09:20.211Z,26.7
2019-04-25T12:10:24.714Z,26.6
2019-04-25T12:11:27.083Z,26.6
2019-04-25T12:12:28.367Z,26.6
2019-04-25T12:13:29.666Z,26.6
2019-04-25T12:14:31.038Z,26.6
2019-04-25T12:15:33.561Z,26.6
2019-04-25T12:16:37.275Z,26.5
2019-04-25T12:17:43.837Z,26.5
2019-04-25T12:18:48.057Z,26.5
2019-04-25T12:19:51.270Z,26.5
2019-04-25T12:20:55.374Z,26.5
2019-04-25T12:21:58.957Z,26.5
2019-04-25T12:23:06.694Z,26.5
2019-04-25T12:24:11.371Z,26.5
2019-04-25T12:25:15.007Z,26.5
2019-04-25T12:26:16.440Z,26.5
2019-04-25T12:27:17.791Z,26.5
2019-04-25T12:28:19.335Z,26.5
2019-04-25T12:29:20.607Z,26.5
2019-04-25T12:30:34.602Z,26.5
2019-04-25T12:31:40.957Z,26.5
2019-04-25T12:32:43.809Z,26.5
2019-04-25T12:33:50.021Z,26.5
2019-04-25T12:34:51.609Z,26.5
2019-04-25T12:35:54.099Z,26.5
2019-04-25T12:36:57.538Z,26.5
2019-04-25T12:37:59.061Z,26.5
2019-04-25T12:39:01.061Z,26.6
2019-04-25T12:40:04.367Z,26.6
2019-04-25T12:41:07.955Z,26.6
2019-04-25T12:42:09.373Z,26.6
2019-04-25T12:43:10.724Z,26.6
2019-04-25T12:44:14.504Z,26.5
2019-04-25T12:45:15.912Z,26.6
2019-04-25T12:46:17.216Z,26.6
2019-04-25T12:47:18.789Z,26.6
2019-04-25T12:48:21.357Z,26.5
2019-04-25T12:49:24.215Z,26.5
2019-04-25T12:50:27.141Z,26.5
2019-04-25T12:51:28.500Z,26.5
2019-04-25T12:52:29.938Z,26.5
2019-04-25T12:53:31.261Z,26.5
2019-04-25T12:54:34.502Z,26.5
2019-04-25T12:55:35.788Z,26.5
2019-04-25T12:56:39.169Z,26.5
2019-04-25T12:57:40.456Z,26.5
2019-04-25T12:58:43.082Z,26.5
2019-04-25T12:59:49.185Z,26.6
2019-04-25T13:00:54.018Z,26.6
2019-04-25T13:02:00.715Z,26.5
2019-04-25T13:03:04.003Z,26.5
2019-04-25T13:04:11.751Z,26.5
2019-04-25T13:05:14.353Z,26.5
2019-04-25T13:06:15.780Z,26.5
2019-04-25T13:07:17.553Z,26.5
2019-04-25T13:08:21.095Z,26.5
2019-04-25T13:09:22.434Z,26.5
2019-04-25T13:10:23.771Z,26.6
2019-04-25T13:11:27.247Z,26.5
2019-04-25T13:12:28.547Z,26.6
2019-04-25T13:13:29.846Z,26.5
2019-04-25T13:14:31.145Z,26.5
2019-04-25T13:15:33.410Z,26.5
2019-04-25T13:16:34.830Z,26.5
2019-04-25T13:17:38.537Z,26.5
2019-04-25T13:18:42.289Z,26.5
2019-04-25T13:19:44.079Z,26.5
2019-04-25T13:20:45.799Z,26.5
2019-04-25T13:21:47.690Z,26.5
2019-04-25T13:22:49.563Z,26.5
2019-04-25T13:23:54.265Z,26.5
2019-04-25T13:24:57.755Z,26.5
2019-04-25T13:26:01.566Z,26.5
2019-04-25T13:27:06.148Z,26.5
2019-04-25T13:28:08.509Z,26.6
2019-04-25T13:29:11.855Z,26.5
2019-04-25T13:30:14.131Z,26.6
2019-04-25T13:31:15.805Z,26.6
2019-04-25T13:32:17.159Z,26.6
2019-04-25T13:33:27.286Z,26.6
2019-04-25T13:34:36.225Z,26.6
2019-04-25T13:35:39.593Z,26.6
2019-04-25T13:36:44.350Z,26.6
2019-04-25T13:37:49.377Z,26.6
2019-04-25T13:38:54.631Z,26.6
2019-04-25T13:39:55.897Z,26.6
2019-04-25T13:40:59.397Z,26.6
2019-04-25T13:42:06.633Z,26.6
2019-04-25T13:43:12.755Z,26.6
2019-04-25T13:44:16.524Z,26.6
2019-04-25T13:45:17.831Z,26.6
2019-04-25T13:46:29.672Z,26.6
2019-04-25T13:47:31.691Z,26.6
2019-04-25T13:48:34.636Z,26.6
2019-04-25T13:49:37.366Z,26.6
2019-04-25T13:50:38.867Z,26.6
2019-04-25T13:51:40.171Z,26.6
2019-04-25T13:52:42.908Z,26.6
2019-04-25T13:53:44.515Z,26.6
2019-04-25T13:54:50.737Z,26.6
2019-04-25T13:55:54.497Z,26.6
2019-04-25T13:56:58.517Z,26.6
2019-04-25T13:58:00.067Z,26.6
2019-04-25T13:59:01.401Z,26.6
2019-04-25T14:00:04.028Z,26.6
2019-04-25T14:01:13.022Z,26.6
2019-04-25T14:02:18.694Z,26.6
2019-04-25T14:03:21.769Z,26.5
2019-04-25T14:04:25.398Z,26.6
2019-04-25T14:05:28.777Z,26.6
2019-04-25T14:06:31.036Z,26.6
2019-04-25T14:07:33.206Z,26.6
2019-04-25T14:08:34.516Z,26.6
2019-04-25T14:09:35.825Z,26.7
2019-04-25T14:10:37.283Z,26.7
2019-04-25T14:11:38.596Z,26.7
2019-04-25T14:12:40.279Z,26.6
2019-04-25T14:13:41.561Z,26.6
2019-04-25T14:14:44.094Z,26.7
2019-04-25T14:15:46.573Z,26.7
2019-04-25T14:16:47.925Z,26.7
2019-04-25T14:17:49.288Z,26.7
2019-04-25T14:18:51.967Z,26.7
2019-04-25T14:19:54.397Z,26.6
2019-04-25T14:20:58.237Z,26.6
2019-04-25T14:22:01.875Z,26.6
2019-04-25T14:23:05.260Z,26.6
2019-04-25T14:24:06.576Z,26.6
2019-04-25T14:25:20.682Z,26.6
2019-04-25T14:26:22.896Z,26.6
2019-04-25T14:27:26.260Z,26.6
2019-04-25T14:28:30.381Z,26.6
2019-04-25T14:29:32.841Z,26.6
2019-04-25T14:30:34.679Z,26.6
2019-04-25T14:31:44.798Z,26.6
2019-04-25T14:32:49.243Z,26.6
2019-04-25T14:33:51.722Z,26.6
2019-04-25T14:34:54.440Z,26.6
2019-04-25T14:35:55.875Z,26.6
2019-04-25T14:36:57.564Z,26.6
2019-04-25T14:37:58.886Z,26.6
2019-04-25T14:39:00.200Z,26.6
2019-04-25T14:40:01.646Z,26.5
2019-04-25T14:41:04.803Z,26.6
2019-04-25T14:42:06.683Z,26.6
2019-04-25T14:43:08.545Z,26.6
2019-04-25T14:44:12.286Z,26.6
2019-04-25T14:45:14.835Z,26.6
2019-04-25T14:46:16.282Z,26.6
2019-04-25T14:47:19.110Z,26.6
2019-04-25T14:48:20.411Z,26.6
2019-04-25T14:49:22.603Z,26.5
2019-04-25T14:50:25.533Z,26.6
2019-04-25T14:51:28.593Z,26.6
2019-04-25T14:52:29.944Z,26.6
2019-04-25T14:53:33.527Z,26.6
2019-04-25T14:54:36.741Z,26.6
2019-04-25T14:55:38.388Z,26.6
2019-04-25T14:56:42.097Z,26.6
2019-04-25T14:57:43.439Z,26.5
2019-04-25T14:58:45.244Z,26.6
2019-04-25T14:59:46.551Z,26.6
2019-04-25T15:00:47.870Z,26.6
2019-04-25T15:01:51.332Z,26.5
2019-04-25T15:02:54.219Z,26.5
2019-04-25T15:03:56.752Z,26.5
2019-04-25T15:05:01.247Z,26.5
2019-04-25T15:06:12.144Z,26.5
2019-04-25T15:07:13.493Z,26.5
2019-04-25T15:08:14.838Z,26.5
2019-04-25T15:09:16.131Z,26.5
2019-04-25T15:10:17.461Z,26.5
2019-04-25T15:11:18.742Z,26.5
2019-04-25T15:12:26.764Z,26.5
2019-04-25T15:13:30.246Z,26.5
2019-04-25T15:14:33.507Z,26.4
2019-04-25T15:15:37.624Z,26.4
2019-04-25T15:16:39.965Z,26.4
2019-04-25T15:17:46.739Z,26.4
2019-04-25T15:18:48.556Z,26.4
2019-04-25T15:19:49.843Z,26.4
2019-04-25T15:20:52.303Z,26.4
2019-04-25T15:21:53.620Z,26.4
2019-04-25T15:22:55.032Z,26.4
2019-04-25T15:24:00.165Z,26.4
2019-04-25T15:25:01.941Z,26.4
2019-04-25T15:26:06.306Z,26.4
2019-04-25T15:27:07.752Z,26.4
2019-04-25T15:28:11.648Z,26.4
2019-04-25T15:29:12.945Z,26.4
2019-04-25T15:30:17.323Z,26.3
2019-04-25T15:31:18.666Z,26.4
2019-04-25T15:32:20.012Z,26.4
2019-04-25T15:33:21.388Z,26.4
2019-04-25T15:34:22.744Z,26.3
2019-04-25T15:35:24.694Z,26.3
2019-04-25T15:36:26.668Z,26.4
2019-04-25T15:37:27.928Z,26.4
2019-04-25T15:38:29.260Z,26.3
2019-04-25T15:39:31.030Z,26.3
2019-04-25T15:40:36.746Z,26.3
2019-04-25T15:41:38.075Z,26.3
2019-04-25T15:42:39.504Z,26.3
2019-04-25T15:43:40.818Z,26.3
2019-04-25T15:44:44.297Z,26.3
2019-04-25T15:45:46.895Z,26.3
2019-04-25T15:46:49.096Z,26.3
2019-04-25T15:47:51.611Z,26.2
2019-04-25T15:48:54.364Z,26.2
2019-04-25T15:49:56.424Z,26.2
2019-04-25T15:50:57.704Z,26.2
2019-04-25T15:51:59.088Z,26.2
2019-04-25T15:53:09.098Z,26.2
2019-04-25T15:54:10.704Z,26.2
2019-04-25T15:55:12.604Z,26.2
2019-04-25T15:56:15.338Z,26.2
2019-04-25T15:57:18.480Z,26.2
2019-04-25T15:58:22.548Z,26.2
2019-04-25T15:59:24.023Z,26.2
2019-04-25T16:00:30.631Z,26.2
2019-04-25T16:01:32.412Z,26.2
2019-04-25T16:02:37.450Z,26.2
2019-04-25T16:03:42.517Z,26.2
2019-04-25T16:04:46.248Z,26.2
2019-04-25T16:05:50.584Z,26.2
2019-04-25T16:06:51.964Z,26.2
2019-04-25T16:07:53.450Z,26.2
2019-04-25T16:08:59.504Z,26.2
2019-04-25T16:10:06.968Z,26.2
2019-04-25T16:11:08.462Z,26.1
2019-04-25T16:12:10.367Z,26.1
2019-04-25T16:13:12.342Z,26.1
2019-04-25T16:14:13.716Z,26.1
2019-04-25T16:15:15.072Z,26
2019-04-25T16:16:16.404Z,26.1
2019-04-25T16:17:17.706Z,26.2
2019-04-25T16:18:19.146Z,26.2
2019-04-25T16:19:20.430Z,26.1
2019-04-25T16:20:21.733Z,26.1
2019-04-25T16:21:23.026Z,26.1
2019-04-25T16:22:24.320Z,26.1
2019-04-25T16:23:27.817Z,26.1
2019-04-25T16:24:32.206Z,26.1
2019-04-25T16:25:33.756Z,26.1
2019-04-25T16:26:36.134Z,26.1
2019-04-25T16:27:39.001Z,26.1
2019-04-25T16:28:40.401Z,26.1
2019-04-25T16:29:41.677Z,26.1
2019-04-25T16:30:43.281Z,26.1
2019-04-25T16:31:45.648Z,26.1
2019-04-25T16:32:47.814Z,26.1
2019-04-25T16:33:49.146Z,26.1
2019-04-25T16:34:53.664Z,26
2019-04-25T16:35:59.088Z,26
2019-04-25T16:37:03.214Z,26
2019-04-25T16:38:06.576Z,26
2019-04-25T16:39:08.005Z,26
2019-04-25T16:40:09.407Z,26
2019-04-25T16:41:10.718Z,26
2019-04-25T16:42:12.442Z,26
2019-04-25T16:43:13.775Z,26
2019-04-25T16:44:17.588Z,26
2019-04-25T16:45:18.912Z,26
2019-04-25T16:46:20.249Z,26
2019-04-25T16:47:21.699Z,26
2019-04-25T16:48:25.454Z,26
2019-04-25T16:49:27.282Z,25.9
2019-04-25T16:50:30.150Z,25.9
2019-04-25T16:51:32.847Z,26
2019-04-25T16:52:34.544Z,25.9
2019-04-25T16:53:37.892Z,25.9
2019-04-25T16:54:40.914Z,25.8
2019-04-25T16:55:46.888Z,25.8
2019-04-25T16:56:51.041Z,25.8
2019-04-25T16:57:54.225Z,25.9
2019-04-25T16:58:56.124Z,25.8
2019-04-25T16:59:57.590Z,25.9
2019-04-25T17:01:00.183Z,25.8
2019-04-25T17:02:02.650Z,25.8
2019-04-25T17:03:04.558Z,25.8
2019-04-25T17:04:05.966Z,25.8
2019-04-25T17:05:07.440Z,25.8
2019-04-25T17:06:11.064Z,25.8
2019-04-25T17:07:12.368Z,25.8
2019-04-25T17:08:16.432Z,25.8
2019-04-25T17:09:20.198Z,25.7
2019-04-25T17:10:21.617Z,25.8
2019-04-25T17:11:25.070Z,25.8
2019-04-25T17:12:26.486Z,25.7
2019-04-25T17:13:28.182Z,25.7
2019-04-25T17:14:32.745Z,25.7
2019-04-25T17:15:34.726Z,25.7
2019-04-25T17:16:39.088Z,25.7
2019-04-25T17:17:40.989Z,25.7
2019-04-25T17:18:42.292Z,25.7
2019-04-25T17:19:47.774Z,25.7
2019-04-25T17:20:49.573Z,25.6
2019-04-25T17:21:51.576Z,25.6
2019-04-25T17:22:52.854Z,25.7
2019-04-25T17:23:54.409Z,25.7
2019-04-25T17:24:55.722Z,25.6
2019-04-25T17:25:57.062Z,25.6
2019-04-25T17:26:59.936Z,25.6
2019-04-25T17:28:05.072Z,25.6
2019-04-25T17:29:08.821Z,25.6
2019-04-25T17:30:12.412Z,25.6
2019-04-25T17:31:16.736Z,25.5
2019-04-25T17:32:18.144Z,25.5
2019-04-25T17:33:19.818Z,25.6
2019-04-25T17:34:22.289Z,25.6
2019-04-25T17:35:28.028Z,25.6
2019-04-25T17:36:35.676Z,25.6
2019-04-25T17:37:38.495Z,25.6
2019-04-25T17:38:42.225Z,25.5
2019-04-25T17:39:45.253Z,25.5
2019-04-25T17:40:51.008Z,25.5
2019-04-25T17:41:53.254Z,25.5
2019-04-25T17:42:54.875Z,25.5
2019-04-25T17:43:56.204Z,25.5
2019-04-25T17:44:57.529Z,25.5
2019-04-25T17:46:01.171Z,25.4
2019-04-25T17:47:06.296Z,25.4
2019-04-25T17:48:08.273Z,25.4
2019-04-25T17:49:20.160Z,25.4
2019-04-25T17:50:24.168Z,25.4
2019-04-25T17:51:26.704Z,25.4
2019-04-25T17:52:32.700Z,25.4
2019-04-25T17:53:36.478Z,25.4
2019-04-25T17:54:43.030Z,25.3
2019-04-25T17:55:44.566Z,25.3
2019-04-25T17:56:48.346Z,25.3
2019-04-25T17:57:49.865Z,25.4
2019-04-25T17:58:51.829Z,25.4
2019-04-25T17:59:54.245Z,25.3
2019-04-25T18:01:09.817Z,25.3
2019-04-25T18:02:11.986Z,25.3
2019-04-25T18:03:17.824Z,25.3
2019-04-25T18:04:19.523Z,25.3
2019-04-25T18:05:29.960Z,25.3
2019-04-25T18:07:24.244Z,25.3
2019-04-25T18:08:28.693Z,25.3
2019-04-25T18:09:31.916Z,25.2
2019-04-25T18:10:38.101Z,25.2
2019-04-25T18:11:40.187Z,25.2
2019-04-25T18:12:45.032Z,25.2
2019-04-25T18:13:46.659Z,25.2
2019-04-25T18:14:48.093Z,25.2
2019-04-25T18:15:49.541Z,25.1
2019-04-25T18:16:50.919Z,25
2019-04-25T18:17:54.396Z,25.1
2019-04-25T18:18:58.235Z,25.1
2019-04-25T18:20:02.573Z,25.1
2019-04-25T18:21:04.268Z,25.1
2019-04-25T18:22:06.094Z,25.1
2019-04-25T18:23:08.632Z,25.1
2019-04-25T18:24:12.165Z,25.1
2019-04-25T18:25:13.539Z,25
2019-04-25T18:26:14.830Z,25
2019-04-25T18:27:27.125Z,25
2019-04-25T18:28:29.971Z,25
2019-04-25T18:29:31.587Z,25
2019-04-25T18:30:32.933Z,25
2019-04-25T18:31:35.494Z,25
2019-04-25T18:32:37.053Z,24.9
2019-04-25T18:33:42.734Z,24.9
2019-04-25T18:34:46.471Z,24.9
2019-04-25T18:35:48.643Z,24.9
2019-04-25T18:36:49.947Z,24.9
2019-04-25T18:37:51.383Z,24.9
2019-04-25T18:38:54.035Z,24.8
2019-04-25T18:39:56.232Z,24.8
2019-04-25T18:40:57.663Z,24.9
2019-04-25T18:41:58.987Z,24.8
2019-04-25T18:43:00.345Z,24.8
2019-04-25T18:44:03.801Z,24.8
2019-04-25T18:45:05.240Z,24.8
2019-04-25T18:46:06.586Z,24.8
2019-04-25T18:47:08.946Z,24.8
2019-04-25T18:48:12.435Z,24.7
2019-04-25T18:49:13.760Z,24.7
2019-04-25T18:50:17.523Z,24.7
2019-04-25T18:51:19.295Z,24.7
2019-04-25T18:52:20.979Z,24.7
2019-04-25T18:53:22.300Z,24.7
2019-04-25T18:54:29.677Z,24.7
2019-04-25T18:55:35.363Z,24.7
2019-04-25T18:56:40.877Z,24.7
2019-04-25T18:57:43.152Z,24.6
2019-04-25T18:58:46.289Z,24.6
2019-04-25T18:59:48.189Z,24.6
2019-04-25T19:00:49.802Z,24.6
2019-04-25T19:01:51.257Z,24.6
2019-04-25T19:02:56.677Z,24.6
2019-04-25T19:03:58.343Z,24.6
2019-04-25T19:04:59.734Z,24.6
2019-04-25T19:06:01.551Z,24.6
2019-04-25T19:07:02.932Z,24.5
2019-04-25T19:08:04.689Z,24.5
2019-04-25T19:09:06.011Z,24.5
2019-04-25T19:10:07.384Z,24.5
2019-04-25T19:11:10.440Z,24.5
2019-04-25T19:12:12.002Z,24.5
2019-04-25T19:13:14.555Z,24.5
2019-04-25T19:14:15.881Z,24.5
2019-04-25T19:15:17.710Z,24.5
2019-04-25T19:16:20.169Z,24.5
2019-04-25T19:17:23.275Z,24.5
2019-04-25T19:18:24.593Z,24.4
2019-04-25T19:19:25.906Z,24.4
2019-04-25T19:20:27.714Z,24.4
2019-04-25T19:21:33.268Z,24.4
2019-04-25T19:22:34.977Z,24.4
2019-04-25T19:23:46.734Z,24.4
2019-04-25T19:24:48.766Z,24.4
2019-04-25T19:25:52.472Z,24.4
2019-04-25T19:26:56.449Z,24.4
2019-04-25T19:28:00.685Z,24.4
2019-04-25T19:29:03.265Z,24.3
2019-04-25T19:30:04.570Z,24.3
2019-04-25T19:31:10.541Z,24.3
2019-04-25T19:32:11.871Z,24.3
2019-04-25T19:33:13.341Z,24.3
2019-04-25T19:34:14.679Z,24.3
2019-04-25T19:35:17.293Z,24.3
2019-04-25T19:36:47.475Z,24.3
2019-04-25T19:37:50.884Z,24.3
2019-04-25T19:43:42.023Z,24.2
2019-04-25T19:44:44.984Z,24.2
2019-04-25T19:45:48.824Z,24.2
2019-04-25T19:46:51.310Z,24.2
2019-04-25T19:47:53.274Z,24.1
2019-04-25T19:48:54.749Z,24.1
2019-04-25T19:50:08.280Z,24.1
2019-04-25T19:51:13.726Z,24.1
2019-04-25T19:52:19.582Z,24.1
2019-04-25T19:53:26.333Z,24.1
2019-04-25T19:54:30.803Z,24.1
2019-04-25T19:55:34.574Z,24.1
2019-04-25T19:58:02.904Z,24.1
2019-04-25T19:59:04.611Z,24
2019-04-25T20:00:06.994Z,24
2019-04-25T20:01:08.262Z,24
2019-04-25T20:02:09.752Z,24
2019-04-25T20:03:14.623Z,24
2019-04-25T20:04:31.496Z,23.9
2019-04-25T20:05:33.141Z,24
2019-04-25T20:06:36.053Z,24
2019-04-25T20:07:37.309Z,24
2019-04-25T20:08:39.573Z,24
2019-04-25T20:09:46.979Z,24
2019-04-25T20:10:48.921Z,24
2019-04-25T20:11:53.435Z,24
2019-04-25T20:12:56.253Z,24
2019-04-25T20:14:02.653Z,23.9
2019-04-25T20:15:03.910Z,23.9
2019-04-25T20:16:05.394Z,23.9
2019-04-25T20:17:06.819Z,23.9
2019-04-25T20:18:08.315Z,23.9
2019-04-25T20:19:09.611Z,23.9
2019-04-25T20:20:15.710Z,23.9
2019-04-25T20:21:19.441Z,23.9
2019-04-25T20:22:21.268Z,23.9
2019-04-25T20:23:22.618Z,23.9
2019-04-25T20:24:24.005Z,23.9
2019-04-25T20:25:25.456Z,23.8
2019-04-25T20:26:26.821Z,23.8
2019-04-25T20:27:31.802Z,23.8
2019-04-25T20:28:33.284Z,23.8
2019-04-25T20:29:34.744Z,23.8
2019-04-25T20:30:36.007Z,23.8
2019-04-25T20:31:37.338Z,23.8
2019-04-25T20:32:38.977Z,23.8
2019-04-25T20:33:40.321Z,23.8
2019-04-25T20:34:41.686Z,23.8
2019-04-25T20:35:43.069Z,23.7
2019-04-25T20:36:47.423Z,23.7
2019-04-25T20:37:56.544Z,23.7
2019-04-25T20:38:57.845Z,23.7
2019-04-25T20:40:00.174Z,23.7
2019-04-25T20:44:32.337Z,23.7
2019-04-25T20:45:33.707Z,23.7
2019-04-25T20:46:35.657Z,23.6
2019-04-25T20:47:39.753Z,23.6
2019-04-25T20:48:43.225Z,23.6
2019-04-25T20:49:46.769Z,23.6
2019-04-25T20:50:50.313Z,23.6
2019-04-25T20:51:52.437Z,23.6
2019-04-25T20:52:54.055Z,23.6
2019-04-25T20:53:57.196Z,23.6
2019-04-25T20:54:58.590Z,23.6
2019-04-25T20:55:59.912Z,23.6
2019-04-25T20:57:01.229Z,23.6
2019-04-25T20:58:02.953Z,23.6
2019-04-25T20:59:05.859Z,23.6
2019-04-25T21:00:08.465Z,23.6
2019-04-25T21:01:10.343Z,23.5
2019-04-25T21:02:14.010Z,23.5
2019-04-25T21:03:16.296Z,23.5
2019-04-25T21:04:17.940Z,23.5
2019-04-25T21:05:19.297Z,23.5
2019-04-25T21:06:25.439Z,23.5
2019-04-25T21:07:26.781Z,23.5
2019-04-25T21:08:33.454Z,23.5
2019-04-25T21:09:34.793Z,23.5
2019-04-25T21:10:36.397Z,23.5
2019-04-25T21:11:37.933Z,23.5
2019-04-25T21:12:39.218Z,23.5
2019-04-25T21:13:41.946Z,23.5
2019-04-25T21:14:43.638Z,23.5
2019-04-25T21:15:45.355Z,23.5
2019-04-25T21:16:46.693Z,23.5
2019-04-25T21:17:48.287Z,23.4
2019-04-25T21:18:51.098Z,23.4
2019-04-25T21:19:52.786Z,23.4
2019-04-25T21:20:57.345Z,23.4
2019-04-25T21:21:59.830Z,23.4
2019-04-25T21:23:02.349Z,23.4
2019-04-25T21:24:05.931Z,23.4
2019-04-25T21:25:07.523Z,23.4
2019-04-25T21:26:10.903Z,23.4
2019-04-25T21:27:12.399Z,23.4
2019-04-25T21:28:15.846Z,23.4
2019-04-25T21:29:18.991Z,23.4
2019-04-25T21:30:20.651Z,23.4
2019-04-25T21:31:22.535Z,23.4
2019-04-25T21:32:23.905Z,23.4
2019-04-25T21:33:29.599Z,23.2
2019-04-25T21:34:32.335Z,23.4
2019-04-25T21:35:35.363Z,23.3
2019-04-25T21:36:36.775Z,23.3
2019-04-25T21:37:55.835Z,23.3
2019-04-25T21:39:08.623Z,23.3
2019-04-25T21:40:15.766Z,23.3
2019-04-25T21:41:18.166Z,23.3
2019-04-25T21:42:22.139Z,23.3
2019-04-25T21:43:27.795Z,23.3
2019-04-25T21:44:31.170Z,23.3
2019-04-25T21:45:32.466Z,23.3
2019-04-25T21:46:34.399Z,23.3
2019-04-25T21:47:36.427Z,23.3
2019-04-25T21:48:40.651Z,23.3
2019-04-25T21:49:42.267Z,23.3
2019-04-25T21:50:43.570Z,23.3
2019-04-25T21:51:46.248Z,23.3
2019-04-25T21:52:47.757Z,23.3
2019-04-25T21:53:49.619Z,23.3
2019-04-25T21:54:51.717Z,23.3
2019-04-25T21:55:56.879Z,23.3
2019-04-25T21:57:00.433Z,23.3
2019-04-25T21:58:02.683Z,23.3
2019-04-25T21:59:05.090Z,23.3
2019-04-25T22:00:08.023Z,23.3
2019-04-25T22:01:10.934Z,23.3
2019-04-25T22:02:12.584Z,23.3
2019-04-25T22:03:14.610Z,23.3
2019-04-25T22:04:18.356Z,23.3
2019-04-25T22:05:20.165Z,23.3
2019-04-25T22:06:22.041Z,23.3
2019-04-25T22:07:23.416Z,23.3
2019-04-25T22:08:25.264Z,23.3
2019-04-25T22:09:26.562Z,23.3
2019-04-25T22:10:29.705Z,23.3
2019-04-25T22:11:31.000Z,23.3
2019-04-25T22:12:33.322Z,23.2
2019-04-25T22:13:34.943Z,23.3
2019-04-25T22:14:36.861Z,23.3
2019-04-25T22:15:41.529Z,23.3
2019-04-25T22:16:43.816Z,23.2
2019-04-25T22:17:56.053Z,23.2
2019-04-25T22:18:59.911Z,23.2
2019-04-25T22:20:03.976Z,23.2
2019-04-25T22:21:06.514Z,23.2
2019-04-25T22:22:08.624Z,23.2
2019-04-25T22:23:09.914Z,23.2
2019-04-25T22:24:14.471Z,23.2
2019-04-25T22:25:18.338Z,23.2
2019-04-25T22:26:22.607Z,23.2
2019-04-25T22:27:31.297Z,23.2
2019-04-25T22:28:33.032Z,22.5
2019-04-25T22:29:34.896Z,22.2
2019-04-25T22:30:36.564Z,21.4
2019-04-25T22:31:37.871Z,21.1
2019-04-25T22:32:39.182Z,21.1
2019-04-25T22:33:40.778Z,21.1
2019-04-25T22:34:51.918Z,21.4
2019-04-25T22:35:54.126Z,21.1
2019-04-25T22:36:59.893Z,21.1
2019-04-25T22:38:02.162Z,20.9
2019-04-25T22:39:03.651Z,20.9
2019-04-25T22:40:07.402Z,20.9
2019-04-25T22:41:08.798Z,20.6
2019-04-25T22:42:12.060Z,20.9
2019-04-25T22:43:13.756Z,20.9
2019-04-25T22:44:15.830Z,20.7
2019-04-25T22:45:17.754Z,20.6
2019-04-25T22:46:25.603Z,20.5
2019-04-25T22:47:31.015Z,20.4
2019-04-25T22:48:32.344Z,20.7
2019-04-25T22:49:33.630Z,20.7
2019-04-25T22:50:37.746Z,20.7
2019-04-25T22:51:39.061Z,20.5
2019-04-25T22:52:41.069Z,20.4
2019-04-25T22:53:42.392Z,20.4
2019-04-25T22:54:43.953Z,20.3
2019-04-25T22:55:48.133Z,19.9
2019-04-25T22:56:50.407Z,19.9
2019-04-25T22:57:52.264Z,20.1
2019-04-25T22:58:53.544Z,20.1
2019-04-25T22:59:55.388Z,20.3
2019-04-25T23:00:56.722Z,20.4
2019-04-25T23:01:58.084Z,20.3
2019-04-25T23:03:00.829Z,20.4
2019-04-25T23:04:06.449Z,20.5
2019-04-25T23:05:11.801Z,20
2019-04-25T23:06:17.048Z,20.3
2019-04-25T23:07:18.402Z,20.5
2019-04-25T23:08:20.196Z,20.5
2019-04-25T23:09:21.560Z,20.6
2019-04-25T23:10:23.386Z,20.2
2019-04-25T23:11:24.938Z,20.2
2019-04-25T23:12:26.596Z,20.5
2019-04-25T23:13:27.877Z,20.1
2019-04-25T23:14:29.746Z,20.4
2019-04-25T23:15:31.376Z,20.6
2019-04-25T23:16:32.994Z,20.3
2019-04-25T23:17:34.308Z,20
2019-04-25T23:18:36.529Z,20
2019-04-25T23:19:37.806Z,19.9
2019-04-25T23:20:39.384Z,19.5
2019-04-25T23:21:41.608Z,19.5
2019-04-25T23:22:49.912Z,19.8
2019-04-25T23:23:51.744Z,19.5
2019-04-25T23:24:53.050Z,19.6
2019-04-25T23:25:54.652Z,19.6
2019-04-25T23:26:56.600Z,19.6
2019-04-25T23:27:57.934Z,19.3
2019-04-25T23:28:59.852Z,19
2019-04-25T23:30:01.175Z,18.7
2019-04-25T23:31:03.820Z,18.7
2019-04-25T23:32:08.302Z,18.6
2019-04-25T23:33:11.047Z,18.6
2019-04-25T23:34:13.310Z,18.8
2019-04-25T23:35:25.355Z,18.8
2019-04-25T23:36:34.397Z,18.6
2019-04-25T23:37:35.724Z,18.4
2019-04-25T23:38:36.994Z,18.4
2019-04-25T23:39:39.038Z,18.5
2019-04-25T23:40:40.364Z,18.6
2019-04-25T23:41:42.469Z,18.5